Time;durP1;ratioP1;P1;durP2;ratioP2;P2;SDS_P1;SDS_P2;PMS_P1;PMS_P2;Temp;Humidity;BMP_temperature;BMP_pressure;BME280_temperature;BME280_humidity;BME280_pressure;Samples;Min_cycle;Max_cycle;Signal;HPM_P1;HPM_P2
2021/04/20 00:01:31;;;;;;;1.98;1.50;;;;;;;21.98;40.59;94326.91;5009398;28;20483;-71
2021/04/20 00:03:57;;;;;;;2.75;1.35;;;;;;;22.10;40.54;94349.97;5009535;28;20049;-71
2021/04/20 00:06:22;;;;;;;1.80;0.98;;;;;;;22.10;40.42;94349.97;5009134;28;20478;-72
2021/04/20 00:08:48;;;;;;;2.67;1.40;;;;;;;22.08;40.47;94338.88;5009389;28;20034;-71
2021/04/20 00:11:13;;;;;;;2.10;1.20;;;;;;;22.04;40.39;94346.59;5008476;28;20041;-72
2021/04/20 00:13:39;;;;;;;2.22;1.42;;;;;;;22.08;40.48;94351.75;5008550;28;20025;-72
2021/04/20 00:16:04;;;;;;;1.80;1.15;;;;;;;22.05;40.56;94347.34;5008614;28;20508;-72
2021/04/20 00:18:30;;;;;;;1.95;1.52;;;;;;;22.01;40.42;94353.06;5009578;28;20026;-72
2021/04/20 00:20:55;;;;;;;2.70;1.40;;;;;;;22.03;40.65;94350.59;5009581;28;20486;-72
2021/04/20 00:23:21;;;;;;;2.03;1.40;;;;;;;21.99;40.51;94344.72;5005279;28;20027;-72
2021/04/20 00:25:46;;;;;;;2.83;1.38;;;;;;;21.99;40.57;94347.44;4990525;28;20030;-71
2021/04/20 00:28:11;;;;;;;2.15;1.30;;;;;;;22.00;40.76;94357.06;4990182;28;20018;-71
2021/04/20 00:30:37;;;;;;;2.50;1.33;;;;;;;21.87;40.56;94331.03;4988284;28;20029;-72
2021/04/20 00:33:02;;;;;;;2.08;1.40;;;;;;;21.98;40.65;94353.38;4988902;28;20030;-72
2021/04/20 00:35:28;;;;;;;2.20;1.35;;;;;;;21.96;40.72;94362.06;4988643;28;20076;-71
2021/04/20 00:37:53;;;;;;;1.98;1.08;;;;;;;21.94;40.57;94348.25;4990175;28;20142;-71
2021/04/20 00:40:19;;;;;;;2.08;1.30;;;;;;;21.95;40.76;94366.00;4972188;28;20026;-72
2021/04/20 00:42:49;;;;;;;2.05;1.42;;;;;;;21.97;40.73;94358.09;5006059;28;20034;-72
2021/04/20 00:45:19;;;;;;;2.10;1.50;;;;;;;21.93;40.68;94360.34;5008961;28;20077;-72
2021/04/20 00:47:45;;;;;;;2.17;1.33;;;;;;;21.92;40.73;94365.59;4991966;28;20045;-72
2021/04/20 00:50:11;;;;;;;2.28;1.40;;;;;;;21.91;40.67;94364.09;4991604;28;20411;-72
2021/04/20 00:52:37;;;;;;;2.35;1.30;;;;;;;21.91;40.67;94364.84;5009010;28;20026;-72
2021/04/20 00:55:03;;;;;;;2.50;1.60;;;;;;;21.89;40.63;94366.63;4991582;28;20552;-72
2021/04/20 00:57:28;;;;;;;1.58;1.15;;;;;;;21.88;40.79;94365.88;5009130;28;20582;-72
2021/04/20 00:59:54;;;;;;;2.42;1.33;;;;;;;21.89;40.83;94372.06;5009328;28;20021;-72
2021/04/20 01:02:19;;;;;;;1.80;1.30;;;;;;;21.88;40.58;94365.13;5007111;28;20033;-72
2021/04/20 01:04:45;;;;;;;2.22;1.40;;;;;;;21.84;40.61;94360.00;5007328;28;20088;-71
2021/04/20 01:07:10;;;;;;;2.28;1.40;;;;;;;21.87;40.63;94358.97;5008596;28;20249;-72
2021/04/20 01:09:36;;;;;;;2.70;1.85;;;;;;;21.80;40.79;94358.81;5007396;28;20030;-71
2021/04/20 01:12:01;;;;;;;2.33;1.50;;;;;;;21.84;40.58;94361.97;4990938;28;20021;-71
2021/04/20 01:14:27;;;;;;;1.98;1.35;;;;;;;21.77;40.91;94348.97;5007803;28;20018;-71
2021/04/20 01:16:52;;;;;;;1.95;1.30;;;;;;;21.77;40.63;94357.13;5007769;28;20033;-72
2021/04/20 01:19:18;;;;;;;1.90;1.30;;;;;;;21.83;40.64;94368.66;5008508;28;20029;-72
2021/04/20 01:21:43;;;;;;;1.52;1.25;;;;;;;21.83;40.70;94363.22;5007437;28;20025;-71
2021/04/20 01:24:09;;;;;;;2.20;1.40;;;;;;;21.83;40.58;94374.09;4991338;28;20034;-72
2021/04/20 01:26:40;;;;;;;2.15;1.52;;;;;;;21.80;40.65;94369.69;5008573;28;20050;-72
2021/04/20 01:29:06;;;;;;;2.40;1.60;;;;;;;21.65;40.83;94353.09;5008630;28;20040;-72
2021/04/20 01:31:34;;;;;;;2.53;1.50;;;;;;;21.83;40.80;94379.53;5008427;28;20473;-72
2021/04/20 01:34:00;;;;;;;1.60;1.42;;;;;;;21.79;40.76;94379.09;5008600;28;20026;-71
2021/04/20 01:36:26;;;;;;;1.80;1.30;;;;;;;21.74;40.86;94366.31;5006906;28;20032;-71
2021/04/20 01:38:52;;;;;;;2.58;1.60;;;;;;;21.78;40.93;94377.63;5008378;28;20120;-72
2021/04/20 01:41:18;;;;;;;1.88;1.45;;;;;;;21.76;40.86;94380.13;5008075;28;20109;-71
2021/04/20 01:43:43;;;;;;;1.90;1.50;;;;;;;21.75;40.87;94378.63;4990873;28;20070;-72
2021/04/20 01:46:09;;;;;;;2.03;1.33;;;;;;;21.75;40.88;94384.06;5006941;28;20045;-72
2021/04/20 01:48:34;;;;;;;1.98;1.48;;;;;;;21.75;40.83;94384.81;5008246;28;20021;-71
2021/04/20 01:51:00;;;;;;;2.25;1.40;;;;;;;21.72;40.97;94387.81;5006420;28;20076;-71
2021/04/20 01:53:26;;;;;;;2.38;1.52;;;;;;;21.59;40.73;94371.44;5008332;28;20021;-71
2021/04/20 01:56:05;;;;;;;2.22;1.40;;;;;;;21.71;41.08;94383.66;5006860;28;20418;-71
2021/04/20 01:58:30;;;;;;;2.08;1.52;;;;;;;21.73;40.84;94384.59;5007049;28;20030;-72
2021/04/20 02:00:56;;;;;;;2.25;1.40;;;;;;;21.73;40.93;94386.56;5006906;28;20529;-71
2021/04/20 02:03:23;;;;;;;2.42;1.60;;;;;;;21.70;40.96;94382.16;5006368;28;20074;-71
2021/04/20 02:05:49;;;;;;;1.90;1.40;;;;;;;21.69;40.87;94380.72;5007063;28;20422;-72
2021/04/20 02:08:15;;;;;;;2.00;1.40;;;;;;;21.71;40.93;94389.09;5006774;28;20025;-72
2021/04/20 02:10:40;;;;;;;2.08;1.40;;;;;;;21.57;40.85;94363.09;5006569;28;20018;-72
2021/04/20 02:13:06;;;;;;;2.08;1.50;;;;;;;21.70;40.88;94398.47;5007054;28;20071;-72
2021/04/20 02:15:31;;;;;;;2.08;1.45;;;;;;;21.66;40.79;94382.47;4990639;28;20422;-72
2021/04/20 02:17:57;;;;;;;1.92;1.38;;;;;;;21.68;40.76;94395.53;5006875;28;20018;-71
2021/04/20 02:20:22;;;;;;;1.73;1.30;;;;;;;21.67;40.85;94385.91;5006797;28;20088;-71
2021/04/20 02:22:48;;;;;;;1.75;1.35;;;;;;;21.68;40.90;94390.09;5006559;28;20033;-71
2021/04/20 02:25:15;;;;;;;2.05;1.58;;;;;;;21.66;40.71;94393.34;5008114;28;20029;-71
2021/04/20 02:27:40;;;;;;;2.38;1.67;;;;;;;21.67;40.85;94388.63;5010375;28;20030;-71
2021/04/20 02:30:08;;;;;;;2.78;1.70;;;;;;;21.47;40.94;94370.09;5011576;28;20036;-72
2021/04/20 02:32:37;;;;;;;1.83;1.27;;;;;;;21.65;40.95;94393.84;5011612;28;20042;-71
2021/04/20 02:35:04;;;;;;;1.87;1.43;;;;;;;21.64;40.80;94400.53;5010550;28;20025;-72
2021/04/20 02:37:29;;;;;;;2.00;1.48;;;;;;;21.65;40.84;94407.44;5011601;28;20042;-71
2021/04/20 02:39:55;;;;;;;2.20;1.40;;;;;;;21.64;40.98;94405.94;5006299;28;20083;-72
2021/04/20 02:42:20;;;;;;;1.95;1.40;;;;;;;21.64;40.79;94400.53;5025652;28;20052;-72
2021/04/20 02:44:46;;;;;;;2.95;1.77;;;;;;;21.61;40.97;94401.53;5004702;28;20030;-71
2021/04/20 02:47:11;;;;;;;2.22;1.60;;;;;;;21.63;40.83;94405.22;4991465;28;20043;-71
2021/04/20 02:49:38;;;;;;;2.20;1.60;;;;;;;21.48;40.84;94382.44;4991831;28;20030;-72
2021/04/20 02:52:03;;;;;;;2.20;1.50;;;;;;;21.38;40.81;94367.00;4990459;28;20096;-71
2021/04/20 02:54:29;;;;;;;2.70;1.58;;;;;;;21.61;40.95;94404.25;4990707;28;20209;-72
2021/04/20 02:56:54;;;;;;;2.47;1.58;;;;;;;21.63;40.99;94409.94;4976821;28;20033;-71
2021/04/20 02:59:20;;;;;;;1.80;1.25;;;;;;;21.61;41.02;94407.72;5010706;28;20034;-72
2021/04/20 03:01:45;;;;;;;2.65;1.60;;;;;;;21.59;40.92;94404.78;4974224;28;20030;-71
2021/04/20 03:04:14;;;;;;;2.10;1.27;;;;;;;21.62;40.90;94414.63;4973750;28;20047;-71
2021/04/20 03:06:41;;;;;;;2.25;1.52;;;;;;;21.61;40.90;94407.72;4974184;28;20068;-71
2021/04/20 03:09:06;;;;;;;2.30;1.58;;;;;;;21.57;40.70;94418.13;4974085;28;20065;-71
2021/04/20 03:11:42;;;;;;;1.45;1.23;;;;;;;21.45;40.84;94394.31;4989774;28;20022;-71
2021/04/20 03:14:08;;;;;;;2.10;1.60;;;;;;;21.57;40.75;94417.41;4998669;28;20018;-71
2021/04/20 03:16:34;;;;;;;2.70;1.65;;;;;;;21.57;40.98;94422.84;5009834;28;20057;-72
2021/04/20 03:19:00;;;;;;;1.70;1.50;;;;;;;21.57;40.88;94414.69;5010905;28;20033;-71
2021/04/20 03:21:25;;;;;;;2.38;1.50;;;;;;;21.39;41.05;94399.06;5010833;28;20052;-71
2021/04/20 03:23:50;;;;;;;2.67;1.67;;;;;;;21.57;40.99;94415.44;4986132;28;20548;-77
2021/04/20 03:26:25;;;;;;;2.75;1.77;;;;;;;21.64;40.72;94419.53;4982481;28;20034;-71
2021/04/20 03:28:55;;;;;;;1.70;1.30;;;;;;;21.68;40.71;94417.28;5027159;28;20468;-71
2021/04/20 03:31:20;;;;;;;2.28;1.60;;;;;;;21.79;40.59;94417.13;4993016;28;20585;-71
2021/04/20 03:33:49;;;;;;;2.10;1.35;;;;;;;21.88;40.58;94420.22;5026295;28;20021;-71
2021/04/20 03:36:16;;;;;;;1.98;1.25;;;;;;;21.95;40.24;94425.81;4987183;28;20112;-72
2021/04/20 03:39:00;;;;;;;2.05;1.45;;;;;;;22.02;40.50;94419.81;5009064;28;20037;-71
2021/04/20 03:41:34;;;;;;;1.48;1.17;;;;;;;22.13;40.24;94425.09;5004408;28;20021;-71
2021/04/20 03:43:59;;;;;;;2.10;1.50;;;;;;;22.14;39.97;94426.56;5002605;28;20029;-71
2021/04/20 03:46:38;;;;;;;1.73;1.27;;;;;;;22.31;39.84;94429.81;4954945;28;20041;-72
2021/04/20 03:49:07;;;;;;;1.83;1.30;;;;;;;22.43;39.66;94436.56;4981819;28;20021;-72
2021/04/20 03:51:33;;;;;;;2.35;1.33;;;;;;;22.52;39.47;94438.91;5004259;28;20029;-71
2021/04/20 03:54:04;;;;;;;1.92;1.35;;;;;;;22.60;39.32;94439.75;5008290;28;20083;-72
2021/04/20 03:56:30;;;;;;;2.55;1.60;;;;;;;22.73;39.32;94442.53;5020781;28;20049;-72
2021/04/20 03:58:56;;;;;;;1.70;1.27;;;;;;;22.83;39.23;94444.38;5009299;28;20024;-72
2021/04/20 04:01:21;;;;;;;2.38;1.73;;;;;;;22.90;39.22;94441.78;4995055;28;20033;-72
2021/04/20 04:03:47;;;;;;;2.05;1.60;;;;;;;22.87;38.87;94425.75;5007972;28;20062;-72
2021/04/20 04:06:12;;;;;;;2.15;1.55;;;;;;;23.13;38.68;94453.78;4995780;28;20021;-72
2021/04/20 04:08:37;;;;;;;2.55;1.50;;;;;;;23.08;38.48;94430.13;5008346;28;20036;-72
2021/04/20 04:11:04;;;;;;;2.33;1.50;;;;;;;23.36;38.02;94454.88;5008489;28;20029;-71
2021/04/20 04:13:29;;;;;;;2.53;1.60;;;;;;;23.18;38.18;94423.00;4989225;28;20660;-72
2021/04/20 04:15:58;;;;;;;2.17;1.52;;;;;;;23.61;37.67;94461.59;4993750;28;20033;-71
2021/04/20 04:18:23;;;;;;;2.30;1.55;;;;;;;23.69;37.71;94467.91;5010549;28;20029;-72
2021/04/20 04:20:49;;;;;;;1.90;1.30;;;;;;;23.80;37.44;94465.00;5008440;28;20289;-72
2021/04/20 04:23:24;;;;;;;2.47;1.50;;;;;;;23.87;37.62;94465.84;5006330;28;20041;-71
2021/04/20 04:26:04;;;;;;;1.85;1.52;;;;;;;23.96;36.89;94468.13;5026976;28;20868;-71
2021/04/20 04:28:30;;;;;;;1.70;1.30;;;;;;;24.08;37.18;94463.94;5027666;28;20489;-71
2021/04/20 04:30:56;;;;;;;1.73;1.48;;;;;;;24.20;37.01;94467.91;5026105;28;20520;-72
2021/04/20 04:33:22;;;;;;;2.25;1.50;;;;;;;24.29;37.28;94472.91;4994385;28;20113;-72
2021/04/20 04:35:48;;;;;;;2.28;1.52;;;;;;;24.23;37.19;94457.91;5005768;28;20034;-73
2021/04/20 04:38:13;;;;;;;2.08;1.38;;;;;;;24.27;36.66;94453.59;5014897;28;20086;-73
2021/04/20 04:40:39;;;;;;;1.48;1.30;;;;;;;24.28;36.94;94455.06;4994461;28;20029;-73
2021/04/20 04:43:04;;;;;;;2.53;1.70;;;;;;;24.55;37.11;94483.78;4978794;28;20406;-74
2021/04/20 04:45:30;;;;;;;2.47;1.60;;;;;;;24.63;36.69;94479.13;5008459;28;20080;-74
2021/04/20 04:47:55;;;;;;;2.15;1.65;;;;;;;24.67;36.92;94485.03;4997970;28;20022;-72
2021/04/20 04:50:21;;;;;;;2.17;1.63;;;;;;;24.68;36.88;94475.53;5014558;28;20037;-72
2021/04/20 04:52:47;;;;;;;2.00;1.60;;;;;;;24.62;36.68;94455.81;5015910;28;20032;-72
2021/04/20 04:55:13;;;;;;;1.95;1.52;;;;;;;24.80;36.59;94487.69;4994925;28;20014;-75
2021/04/20 04:57:38;;;;;;;2.50;1.75;;;;;;;24.86;36.14;94486.31;5013679;28;20064;-73
2021/04/20 05:00:07;;;;;;;1.85;1.50;;;;;;;24.89;36.21;94485.97;4996089;28;20038;-75
2021/04/20 05:02:34;;;;;;;2.03;1.50;;;;;;;24.99;35.95;94491.72;5016939;28;20026;-76
2021/04/20 05:05:06;;;;;;;1.85;1.52;;;;;;;25.08;36.30;94492.03;5010583;28;20087;-74
2021/04/20 05:07:32;;;;;;;2.67;1.73;;;;;;;25.14;35.84;94503.56;5004501;28;20033;-71
2021/04/20 05:10:05;;;;;;;2.58;1.80;;;;;;;25.13;35.97;94499.34;5006000;28;20038;-73
2021/04/20 05:12:31;;;;;;;1.85;1.58;;;;;;;25.19;36.15;94505.41;5008444;28;20487;-72
2021/04/20 05:14:57;;;;;;;2.95;2.25;;;;;;;25.17;35.33;94505.22;5020863;28;20029;-75
2021/04/20 05:17:22;;;;;;;2.20;1.75;;;;;;;25.25;35.95;94500.56;5010997;28;20033;-75
2021/04/20 05:19:49;;;;;;;2.38;1.67;;;;;;;25.30;35.68;94507.88;4989428;28;20063;-76
2021/04/20 05:22:14;;;;;;;2.53;1.73;;;;;;;25.11;35.73;94490.97;5005826;28;20120;-76
2021/04/20 05:24:40;;;;;;;2.58;1.45;;;;;;;25.38;35.91;94503.19;4979153;28;20523;-73
2021/04/20 05:27:06;;;;;;;2.60;1.80;;;;;;;25.46;36.30;94514.94;5003572;28;20045;-72
2021/04/20 05:29:32;;;;;;;1.63;1.50;;;;;;;25.39;38.26;94515.59;5007797;28;20064;-79
2021/04/20 05:31:58;;;;;;;3.15;1.83;;;;;;;25.48;39.53;94520.59;5001174;28;20029;-71
2021/04/20 05:34:23;;;;;;;2.70;1.80;;;;;;;25.46;38.19;94520.41;5007017;28;20029;-73
2021/04/20 05:36:49;;;;;;;1.65;1.30;;;;;;;25.53;43.00;94519.72;4984221;28;20030;-76
2021/04/20 05:39:15;;;;;;;2.15;1.75;;;;;;;25.55;39.90;94520.66;5007870;28;20033;-71
2021/04/20 05:41:40;;;;;;;2.25;1.80;;;;;;;25.49;37.67;94524.81;4999622;28;20044;-72
2021/04/20 05:44:11;;;;;;;2.03;1.30;;;;;;;25.56;39.43;94535.06;5011555;28;20040;-70
2021/04/20 05:46:37;;;;;;;2.28;1.60;;;;;;;25.45;39.38;94524.41;5014246;28;20435;-78
2021/04/20 05:49:04;;;;;;;2.20;1.90;;;;;;;25.41;37.96;94516.56;5007345;28;20112;-78
2021/04/20 05:51:29;;;;;;;3.33;1.80;;;;;;;25.45;37.05;94530.59;5011130;28;20099;-74
2021/04/20 05:53:55;;;;;;;2.50;1.60;;;;;;;25.34;37.14;94503.53;5003529;28;20490;-74
2021/04/20 05:56:21;;;;;;;2.22;1.58;;;;;;;25.55;36.59;94528.88;4985515;28;20513;-72
2021/04/20 05:58:52;;;;;;;2.28;1.75;;;;;;;25.57;36.50;94531.78;5014941;28;20037;-73
2021/04/20 06:01:17;;;;;;;2.40;1.80;;;;;;;25.49;36.70;94530.28;4994845;28;20030;-73
2021/04/20 06:03:43;;;;;;;1.92;1.63;;;;;;;25.64;36.53;94546.81;5018004;28;20041;-75
2021/04/20 06:06:08;;;;;;;2.35;1.88;;;;;;;25.75;36.16;94535.63;5013015;28;20041;-72
2021/04/20 06:08:35;;;;;;;1.98;1.60;;;;;;;25.70;36.09;94528.28;4989551;28;20014;-73
2021/04/20 06:11:02;;;;;;;2.53;1.80;;;;;;;25.73;36.05;94532.69;4987401;28;20028;-72
2021/04/20 06:13:28;;;;;;;2.40;1.98;;;;;;;25.61;36.16;94521.25;5022459;28;20104;-74
2021/04/20 06:15:53;;;;;;;2.20;1.60;;;;;;;25.76;36.20;94548.03;5000785;28;20028;-73
2021/04/20 06:18:20;;;;;;;2.25;1.83;;;;;;;25.74;36.15;94545.09;5000466;28;20021;-72
2021/04/20 06:20:45;;;;;;;3.05;2.10;;;;;;;25.91;35.57;94544.13;5026164;28;20033;-76
2021/04/20 06:23:11;;;;;;;3.63;2.75;;;;;;;25.92;35.03;94551.06;4983113;28;20038;-75
2021/04/20 06:25:36;;;;;;;2.60;1.92;;;;;;;25.95;35.48;94550.00;5011362;28;20026;-74
2021/04/20 06:28:02;;;;;;;3.22;2.83;;;;;;;25.95;34.71;94550.00;4988503;28;20569;-73
2021/04/20 06:30:28;;;;;;;3.17;2.13;;;;;;;25.80;35.35;94508.84;4982880;28;20073;-71
2021/04/20 06:32:53;;;;;;;2.40;1.80;;;;;;;25.96;35.48;94546.00;5005212;28;20029;-72
2021/04/20 06:35:19;;;;;;;2.28;1.83;;;;;;;26.04;35.41;94552.25;5002973;28;20030;-71
2021/04/20 06:37:46;;;;;;;2.65;2.15;;;;;;;26.17;35.08;94537.72;5012734;28;20690;-71
2021/04/20 06:40:17;;;;;;;3.22;2.00;;;;;;;25.89;34.85;94524.78;4985077;28;20137;-73
2021/04/20 06:42:47;;;;;;;2.78;2.22;;;;;;;26.17;35.14;94554.88;4986397;28;20042;-72
2021/04/20 06:45:16;;;;;;;5.35;2.15;;;;;;;26.10;35.22;94550.09;5001708;28;20491;-72
2021/04/20 06:47:53;;;;;;;2.97;2.20;;;;;;;25.89;35.36;94554.88;5021372;28;20041;-72
2021/04/20 06:50:18;;;;;;;2.72;2.08;;;;;;;25.79;35.38;94519.59;4987346;28;20037;-72
2021/04/20 06:53:00;;;;;;;3.20;2.20;;;;;;;25.93;35.25;94536.13;5000012;28;20417;-72
2021/04/20 06:55:36;;;;;;;2.70;2.25;;;;;;;26.01;35.06;94539.63;5002748;28;20038;-71
2021/04/20 06:58:09;;;;;;;2.72;2.22;;;;;;;26.02;34.82;94549.31;4989999;28;20053;-73
2021/04/20 07:00:43;;;;;;;3.22;2.33;;;;;;;26.02;35.13;94538.38;4993473;28;20042;-67
2021/04/20 07:03:40;;;;;;;3.10;2.15;;;;;;;26.04;34.96;94546.78;5012698;28;20144;-68
2021/04/20 07:06:19;;;;;;;3.20;2.58;;;;;;;25.92;34.88;94512.75;4965478;28;20021;-68
2021/04/20 07:09:00;;;;;;;2.53;2.17;;;;;;;26.07;34.86;94545.69;5009753;28;20128;-68
2021/04/20 07:11:27;;;;;;;3.63;2.58;;;;;;;26.01;34.85;94542.38;5018515;28;20036;-69
2021/04/20 07:13:55;;;;;;;2.95;2.33;;;;;;;26.00;34.58;94551.84;4991808;28;20027;-68
2021/04/20 07:16:36;;;;;;;4.22;2.58;;;;;;;25.91;35.00;94549.59;4989813;28;20026;-69
2021/04/20 07:19:20;;;;;;;2.85;2.30;;;;;;;25.85;35.09;94551.72;5010715;28;20116;-68
2021/04/20 07:22:04;;;;;;;3.35;2.40;;;;;;;25.78;34.75;94550.97;5021259;28;20035;-69
2021/04/20 07:25:07;;;;;;;3.42;2.70;;;;;;;25.70;35.11;94550.16;5022261;28;20025;-69
2021/04/20 07:28:21;;;;;;;3.35;2.50;;;;;;;25.59;35.29;94550.41;5024055;28;20036;-68
2021/04/20 07:31:03;;;;;;;4.47;2.90;;;;;;;25.58;35.07;94554.41;4948392;28;20469;-68
2021/04/20 07:33:46;;;;;;;2.80;2.40;;;;;;;25.48;35.26;94569.81;5026163;28;20053;-69
2021/04/20 07:36:40;;;;;;;3.65;2.35;;;;;;;25.45;35.58;94557.94;5000636;28;20037;-68
2021/04/20 07:39:10;;;;;;;3.45;2.55;;;;;;;25.37;35.57;94572.81;5025255;28;20028;-69
2021/04/20 07:41:52;;;;;;;3.35;2.47;;;;;;;25.32;35.65;94570.97;4999357;28;20045;-69
2021/04/20 07:44:40;;;;;;;3.05;2.60;;;;;;;25.22;35.52;94567.22;5015867;28;20028;-69
2021/04/20 07:47:10;;;;;;;3.53;2.63;;;;;;;25.18;36.01;94575.00;5005621;28;20092;-68
2021/04/20 07:49:42;;;;;;;;;;;;;;;25.13;36.24;94570.41;5027819;28;20041;-69
2021/04/20 07:52:14;;;;;;;3.30;2.75;;;;;;;25.13;36.13;94575.13;5004345;28;20401;-69
2021/04/20 07:54:57;;;;;;;3.35;2.65;;;;;;;25.09;36.29;94569.97;5010462;28;20029;-68
2021/04/20 07:57:30;;;;;;;3.65;2.95;;;;;;;25.05;35.89;94586.00;5018069;28;20034;-68
2021/04/20 07:59:57;;;;;;;3.55;2.85;;;;;;;25.00;36.14;94586.81;5012508;28;20064;-68
2021/04/20 08:02:47;;;;;;;3.67;2.97;;;;;;;24.96;35.99;94588.38;5029268;28;20041;-68
2021/04/20 08:05:27;;;;;;;3.92;2.78;;;;;;;24.92;36.27;94591.44;5006371;28;20026;-68
2021/04/20 08:08:01;;;;;;;3.17;2.60;;;;;;;24.88;36.39;94582.09;5007251;28;20454;-68
2021/04/20 08:10:54;;;;;;;3.80;2.85;;;;;;;24.85;36.54;94594.81;5008233;28;20025;-68
2021/04/20 08:13:25;;;;;;;3.97;2.72;;;;;;;24.82;36.07;94601.34;5010087;28;20440;-68
2021/04/20 08:16:01;;;;;;;3.47;2.95;;;;;;;24.75;36.23;94600.53;5009499;28;20513;-68
2021/04/20 08:18:32;;;;;;;4.30;3.45;;;;;;;24.61;36.33;94588.16;5008290;28;20032;-68
2021/04/20 08:20:58;;;;;;;9.23;3.97;;;;;;;24.69;35.91;94605.34;4991826;28;20223;-68
2021/04/20 08:23:25;;;;;;;4.82;3.47;;;;;;;24.67;36.61;94607.88;4991322;28;20032;-68
2021/04/20 08:25:52;;;;;;;4.40;3.00;;;;;;;24.45;36.51;94572.84;5009529;28;20033;-68
2021/04/20 08:28:58;;;;;;;4.45;3.10;;;;;;;24.59;36.82;94593.41;4988510;28;20541;-68
2021/04/20 08:31:42;;;;;;;3.75;3.05;;;;;;;24.58;36.73;94591.94;4910394;29;20028;-69
2021/04/20 08:34:22;;;;;;;4.07;2.90;;;;;;;24.58;36.67;94591.94;4863887;29;20020;-68
2021/04/20 08:37:08;;;;;;;;;;;;;;;24.55;36.84;94603.91;4971806;28;20042;-69
2021/04/20 08:40:15;;;;;;;4.32;2.75;;;;;;;24.53;36.87;94600.97;4989643;28;19918;-68
2021/04/20 08:43:14;;;;;;;3.63;2.92;;;;;;;24.33;37.05;94571.59;4976257;28;20121;-69
2021/04/20 08:45:41;;;;;;;4.50;3.03;;;;;;;24.48;37.23;94610.00;4974849;28;20034;-68
2021/04/20 08:48:06;;;;;;;3.92;2.90;;;;;;;24.46;36.81;94598.88;4982088;28;20129;-69
2021/04/20 08:50:34;;;;;;;3.75;2.78;;;;;;;24.44;37.25;94607.59;5016246;28;20140;-73
2021/04/20 08:53:41;;;;;;;5.53;3.28;;;;;;;24.41;37.14;94605.19;4991413;28;20422;-73
2021/04/20 08:56:29;;;;;;;3.70;3.03;;;;;;;24.37;37.40;94599.31;4976348;28;20499;-75
2021/04/20 08:59:11;;;;;;;4.80;3.22;;;;;;;24.29;37.51;94593.00;4998400;28;20036;-72
2021/04/20 09:01:59;;;;;;;3.42;2.75;;;;;;;24.29;37.76;94597.69;4989297;28;20022;-74
2021/04/20 09:05:02;;;;;;;6.38;3.15;;;;;;;24.31;37.70;94612.28;4999026;28;20050;-74
2021/04/20 09:07:31;;;;;;;4.88;3.10;;;;;;;24.28;37.42;94607.88;5006410;28;20457;-75
2021/04/20 09:10:05;;;;;;;4.57;3.33;;;;;;;24.31;37.72;94606.84;4987519;28;20048;-75
2021/04/20 09:12:31;;;;;;;4.63;2.95;;;;;;;24.28;37.88;94615.34;5005791;28;20061;-74
2021/04/20 09:14:57;;;;;;;4.45;3.30;;;;;;;24.21;37.69;94585.94;4956182;28;20519;-73
2021/04/20 09:17:22;;;;;;;4.43;3.30;;;;;;;24.35;38.07;94607.28;4974089;28;20025;-74
2021/04/20 09:19:55;;;;;;;4.82;3.65;;;;;;;24.48;37.80;94615.47;4967736;28;20099;-75
2021/04/20 09:22:33;;;;;;;5.60;3.58;;;;;;;24.56;37.89;94616.31;5010167;28;20499;-75
2021/04/20 09:25:27;;;;;;;6.75;3.35;;;;;;;24.63;38.06;94616.38;5004900;28;20418;-75
2021/04/20 09:28:02;;;;;;;4.72;3.67;;;;;;;24.78;38.33;94624.03;4985985;28;20037;-74
2021/04/20 09:30:38;;;;;;;5.28;3.58;;;;;;;24.87;38.16;94611.44;5002316;28;20108;-75
2021/04/20 09:33:26;;;;;;;5.40;3.63;;;;;;;24.97;37.76;94611.72;4989744;28;20030;-75
2021/04/20 09:35:51;;;;;;;4.68;3.70;;;;;;;25.15;37.99;94606.13;4971005;28;20037;-75
2021/04/20 09:38:17;;;;;;;6.63;3.60;;;;;;;25.10;37.03;94587.84;5005944;28;20110;-75
2021/04/20 09:40:42;;;;;;;4.72;3.30;;;;;;;25.34;37.22;94606.69;4982165;28;20029;-75
2021/04/20 09:43:31;;;;;;;5.72;3.83;;;;;;;25.49;37.19;94606.84;4990213;28;20564;-75
2021/04/20 09:46:07;;;;;;;5.53;4.00;;;;;;;25.59;36.84;94599.63;4984151;28;20062;-74
2021/04/20 09:48:59;;;;;;;5.63;3.60;;;;;;;25.63;36.51;94605.50;4989405;28;20811;-75
2021/04/20 09:51:26;;;;;;;5.75;3.80;;;;;;;25.71;36.55;94609.06;4992826;28;20533;-74
2021/04/20 09:54:25;;;;;;;6.43;3.75;;;;;;;25.79;36.40;94601.66;4986627;28;20125;-76
2021/04/20 09:56:55;;;;;;;4.65;3.35;;;;;;;25.85;36.32;94603.72;4985458;28;20046;-74
2021/04/20 09:59:29;;;;;;;4.60;3.47;;;;;;;25.87;36.38;94593.00;4987957;28;20034;-75
2021/04/20 10:02:03;;;;;;;5.30;3.58;;;;;;;25.90;36.29;94597.41;5001731;28;20049;-73
2021/04/20 10:04:31;;;;;;;5.35;3.25;;;;;;;25.95;36.22;94606.72;4998758;28;20133;-75
2021/04/20 10:07:08;;;;;;;6.03;4.00;;;;;;;25.95;36.09;94593.78;4997152;28;20026;-74
2021/04/20 10:09:42;;;;;;;5.90;3.90;;;;;;;26.02;36.12;94593.09;4999970;28;20030;-74
2021/04/20 10:12:23;;;;;;;4.82;3.90;;;;;;;26.06;36.08;94584.53;4983910;28;20461;-75
2021/04/20 10:15:10;;;;;;;4.85;3.78;;;;;;;26.08;35.85;94590.22;5003652;28;20113;-74
2021/04/20 10:17:57;;;;;;;4.57;3.83;;;;;;;26.12;36.05;94579.66;5000754;28;20498;-75
2021/04/20 10:20:46;;;;;;;5.20;4.10;;;;;;;26.13;35.79;94587.34;5000401;28;20356;-75
2021/04/20 10:23:23;;;;;;;4.90;3.75;;;;;;;26.18;35.64;94588.47;4999448;28;20037;-73
2021/04/20 10:25:50;;;;;;;5.85;3.50;;;;;;;26.18;35.81;94589.19;4998333;28;20066;-74
2021/04/20 10:28:28;;;;;;;4.78;3.78;;;;;;;26.14;35.36;94588.06;4986034;28;20034;-74
2021/04/20 10:30:55;;;;;;;5.15;3.72;;;;;;;26.26;35.54;94583.75;4999119;28;20038;-75
2021/04/20 10:33:22;;;;;;;4.85;3.80;;;;;;;26.22;35.35;94562.22;4982228;28;20033;-74
2021/04/20 10:35:48;;;;;;;4.63;3.50;;;;;;;26.55;34.86;94577.75;4978760;28;20034;-75
2021/04/20 10:38:15;;;;;;;4.43;3.55;;;;;;;26.39;34.93;94526.91;4981138;28;20410;-75
2021/04/20 10:40:42;;;;;;;4.57;3.65;;;;;;;26.67;34.84;94571.41;4980769;28;20030;-74
2021/04/20 10:43:17;;;;;;;5.15;3.40;;;;;;;26.62;34.70;94549.66;4979444;28;20030;-75
2021/04/20 10:45:43;;;;;;;5.07;3.72;;;;;;;26.79;34.82;94559.59;4987684;28;20088;-75
2021/04/20 10:48:14;;;;;;;5.00;3.90;;;;;;;26.79;34.22;94559.59;5010965;28;20038;-75
2021/04/20 10:50:40;;;;;;;4.80;3.70;;;;;;;26.87;34.26;94549.38;4999462;28;20026;-73
2021/04/20 10:53:30;;;;;;;4.80;3.67;;;;;;;26.95;34.48;94550.19;4997730;28;20053;-72
2021/04/20 10:56:06;;;;;;;5.22;3.65;;;;;;;27.02;34.38;94543.97;4997497;28;20038;-73
2021/04/20 10:58:32;;;;;;;5.47;4.25;;;;;;;27.05;34.37;94558.59;5003117;28;20041;-73
2021/04/20 11:00:57;;;;;;;5.32;4.03;;;;;;;27.03;34.38;94561.88;4992626;28;20026;-73
2021/04/20 11:03:24;;;;;;;4.55;3.70;;;;;;;26.95;34.20;94527.50;5007174;28;20053;-73
2021/04/20 11:05:49;;;;;;;4.75;4.07;;;;;;;27.15;34.43;94557.53;4977987;28;20042;-73
2021/04/20 11:08:22;;;;;;;4.85;3.60;;;;;;;27.19;34.29;94541.47;5009423;28;20034;-73
2021/04/20 11:10:47;;;;;;;4.50;3.60;;;;;;;27.05;34.56;94526.44;5004931;28;20038;-73
2021/04/20 11:13:13;;;;;;;4.88;3.55;;;;;;;27.22;34.04;94551.34;4988257;28;20204;-74
2021/04/20 11:15:38;;;;;;;5.00;3.90;;;;;;;27.14;34.70;94528.66;5002236;28;20491;-76
2021/04/20 11:18:10;;;;;;;6.13;4.28;;;;;;;27.31;33.77;94548.06;5005211;28;20040;-74
2021/04/20 11:20:40;;;;;;;4.65;4.10;;;;;;;27.30;34.26;94535.63;5000674;28;20068;-73
2021/04/20 11:23:09;;;;;;;5.20;3.90;;;;;;;27.34;34.13;94536.72;5006350;28;20411;-74
2021/04/20 11:25:47;;;;;;;6.22;3.67;;;;;;;27.28;34.21;94543.69;4998266;28;20120;-74
2021/04/20 11:28:28;;;;;;;4.85;3.65;;;;;;;27.31;34.01;94537.09;4980644;28;20040;-74
2021/04/20 11:31:01;;;;;;;5.28;3.95;;;;;;;27.33;34.03;94540.03;5003298;28;20073;-74
2021/04/20 11:33:40;;;;;;;5.40;4.07;;;;;;;27.14;33.95;94523.16;5004029;28;20021;-74
2021/04/20 11:36:22;;;;;;;5.53;4.20;;;;;;;27.17;33.92;94543.28;4987793;28;20080;-74
2021/04/20 11:38:56;;;;;;;5.15;3.63;;;;;;;26.93;34.14;94503.38;5007303;28;20033;-74
2021/04/20 11:41:30;;;;;;;4.80;3.83;;;;;;;27.07;34.22;94523.91;4977508;28;20624;-77
2021/04/20 11:43:57;;;;;;;4.90;3.88;;;;;;;27.00;34.38;94524.59;5003300;28;20494;-75
2021/04/20 11:46:22;;;;;;;5.53;3.90;;;;;;;26.90;34.53;94509.94;4989813;28;20077;-71
2021/04/20 11:48:50;;;;;;;5.03;3.60;;;;;;;26.86;34.71;94509.56;4986412;28;20487;-69
2021/04/20 11:51:16;;;;;;;4.68;3.80;;;;;;;26.77;34.58;94523.78;5001231;28;20045;-69